Jerseyville, Illinois
Current Conditions -  °F | °C
As of 5:54 PM on Wednesday 28 Jan 2015 (Local Time) from KSET Reporting Station
Clear Clear  
Wind Chill: 36°   Ceiling: Unl
Heat Index: 43°   Visibility: 10mi
Dew Point: 33°   Wind: 13mph
Humidity: 68%   Direction: 140°SE
Pressure: 29.94"   Gusts: NA
Location:  39.12°N, 90.33°W
Report Text: KSET 282354Z AUTO 14011KT 10SM CLR 06/01 A2994 RMK AO2 SLP140 T00610006 10089 20056 56025
Loading
Personal Weather Stations






























Interactive Weather Map New forecast layout! Learn more

10-Day Weather Forecast

Advertisements
Track Severe Weather on mobile